sensor_id;sensor_type;location;lat;lon;timestamp;temperature;humidity
15574;DHT22;7888;46.748;8.102;2024-03-02T00:00:51;10.40;57.00
15574;DHT22;7888;46.748;8.102;2024-03-02T00:03:18;10.30;57.00
15574;DHT22;7888;46.748;8.102;2024-03-02T00:05:51;10.30;57.00
15574;DHT22;7888;46.748;8.102;2024-03-02T00:08:25;10.30;57.20
15574;DHT22;7888;46.748;8.102;2024-03-02T00:10:51;10.30;57.90
15574;DHT22;7888;46.748;8.102;2024-03-02T00:13:21;10.40;57.20
15574;DHT22;7888;46.748;8.102;2024-03-02T00:15:56;10.40;57.30
15574;DHT22;7888;46.748;8.102;2024-03-02T00:18:36;10.40;57.50
15574;DHT22;7888;46.748;8.102;2024-03-02T00:21:03;10.40;57.70
15574;DHT22;7888;46.748;8.102;2024-03-02T00:23:31;10.40;57.40
15574;DHT22;7888;46.748;8.102;2024-03-02T00:25:59;10.40;57.40
15574;DHT22;7888;46.748;8.102;2024-03-02T00:28:35;10.40;57.40
15574;DHT22;7888;46.748;8.102;2024-03-02T00:31:09;10.40;57.50
15574;DHT22;7888;46.748;8.102;2024-03-02T00:36:14;10.40;57.20
15574;DHT22;7888;46.748;8.102;2024-03-02T00:41:23;10.40;57.10
15574;DHT22;7888;46.748;8.102;2024-03-02T00:44:06;10.40;57.00
15574;DHT22;7888;46.748;8.102;2024-03-02T00:46:35;10.40;57.00
15574;DHT22;7888;46.748;8.102;2024-03-02T00:49:04;10.40;56.90
15574;DHT22;7888;46.748;8.102;2024-03-02T00:51:32;10.40;57.00
15574;DHT22;7888;46.748;8.102;2024-03-02T00:54:01;10.30;56.90
15574;DHT22;7888;46.748;8.102;2024-03-02T00:56:30;10.30;56.90
15574;DHT22;7888;46.748;8.102;2024-03-02T00:58:56;10.30;56.90
15574;DHT22;7888;46.748;8.102;2024-03-02T01:01:23;10.30;56.80
15574;DHT22;7888;46.748;8.102;2024-03-02T01:03:49;10.30;56.90
15574;DHT22;7888;46.748;8.102;2024-03-02T01:06:16;10.30;57.00
15574;DHT22;7888;46.748;8.102;2024-03-02T01:08:42;10.30;57.10
15574;DHT22;7888;46.748;8.102;2024-03-02T01:11:08;10.30;57.20
15574;DHT22;7888;46.748;8.102;2024-03-02T01:13:35;10.30;57.20
15574;DHT22;7888;46.748;8.102;2024-03-02T01:16:01;10.30;57.30
15574;DHT22;7888;46.748;8.102;2024-03-02T01:18:28;10.30;57.40
15574;DHT22;7888;46.748;8.102;2024-03-02T01:20:54;10.30;57.40
15574;DHT22;7888;46.748;8.102;2024-03-02T01:23:23;10.30;57.40
15574;DHT22;7888;46.748;8.102;2024-03-02T01:25:49;10.30;57.40
15574;DHT22;7888;46.748;8.102;2024-03-02T01:28:16;10.30;57.20
15574;DHT22;7888;46.748;8.102;2024-03-02T01:30:42;10.30;57.10
15574;DHT22;7888;46.748;8.102;2024-03-02T01:33:08;10.30;57.20
15574;DHT22;7888;46.748;8.102;2024-03-02T01:35:34;10.30;57.20
15574;DHT22;7888;46.748;8.102;2024-03-02T01:38:00;10.30;57.10
15574;DHT22;7888;46.748;8.102;2024-03-02T01:40:27;10.30;57.50
15574;DHT22;7888;46.748;8.102;2024-03-02T01:42:53;10.30;56.80
15574;DHT22;7888;46.748;8.102;2024-03-02T01:45:20;10.30;56.80
15574;DHT22;7888;46.748;8.102;2024-03-02T01:47:47;10.30;56.80
15574;DHT22;7888;46.748;8.102;2024-03-02T01:50:13;10.20;56.80
15574;DHT22;7888;46.748;8.102;2024-03-02T01:52:39;10.20;56.80
15574;DHT22;7888;46.748;8.102;2024-03-02T01:55:05;10.30;56.90
15574;DHT22;7888;46.748;8.102;2024-03-02T01:57:33;10.20;56.80
15574;DHT22;7888;46.748;8.102;2024-03-02T02:00:00;10.20;56.80
15574;DHT22;7888;46.748;8.102;2024-03-02T02:02:26;10.20;56.90
15574;DHT22;7888;46.748;8.102;2024-03-02T02:04:52;10.20;57.00
15574;DHT22;7888;46.748;8.102;2024-03-02T02:07:18;10.20;57.10
15574;DHT22;7888;46.748;8.102;2024-03-02T02:09:44;10.20;57.20
15574;DHT22;7888;46.748;8.102;2024-03-02T02:12:10;10.20;57.30
15574;DHT22;7888;46.748;8.102;2024-03-02T02:14:36;10.20;57.40
15574;DHT22;7888;46.748;8.102;2024-03-02T02:17:02;10.20;57.40
15574;DHT22;7888;46.748;8.102;2024-03-02T02:19:28;10.20;57.50
15574;DHT22;7888;46.748;8.102;2024-03-02T02:21:55;10.20;58.10
15574;DHT22;7888;46.748;8.102;2024-03-02T02:24:21;10.10;57.50
15574;DHT22;7888;46.748;8.102;2024-03-02T02:26:46;10.10;57.60
15574;DHT22;7888;46.748;8.102;2024-03-02T02:29:12;10.10;57.70
15574;DHT22;7888;46.748;8.102;2024-03-02T02:31:39;10.10;57.80
15574;DHT22;7888;46.748;8.102;2024-03-02T02:34:06;10.10;57.70
15574;DHT22;7888;46.748;8.102;2024-03-02T02:36:33;10.10;57.60
15574;DHT22;7888;46.748;8.102;2024-03-02T02:39:02;10.00;57.40
15574;DHT22;7888;46.748;8.102;2024-03-02T02:41:29;10.00;57.50
15574;DHT22;7888;46.748;8.102;2024-03-02T02:43:56;10.00;57.40
15574;DHT22;7888;46.748;8.102;2024-03-02T02:46:22;10.00;57.40
15574;DHT22;7888;46.748;8.102;2024-03-02T02:48:48;10.00;57.30
15574;DHT22;7888;46.748;8.102;2024-03-02T02:51:13;10.00;57.30
15574;DHT22;7888;46.748;8.102;2024-03-02T02:53:39;10.00;57.30
15574;DHT22;7888;46.748;8.102;2024-03-02T02:56:07;9.90;57.90
15574;DHT22;7888;46.748;8.102;2024-03-02T02:58:33;9.90;57.20
15574;DHT22;7888;46.748;8.102;2024-03-02T03:00:59;9.90;57.20
15574;DHT22;7888;46.748;8.102;2024-03-02T03:03:25;9.90;57.10
15574;DHT22;7888;46.748;8.102;2024-03-02T03:05:50;9.90;57.10
15574;DHT22;7888;46.748;8.102;2024-03-02T03:08:16;9.80;57.10
15574;DHT22;7888;46.748;8.102;2024-03-02T03:10:42;9.90;57.30
15574;DHT22;7888;46.748;8.102;2024-03-02T03:13:08;9.80;57.20
15574;DHT22;7888;46.748;8.102;2024-03-02T03:15:37;9.80;57.10
15574;DHT22;7888;46.748;8.102;2024-03-02T03:18:04;9.80;56.90
15574;DHT22;7888;46.748;8.102;2024-03-02T03:20:30;9.80;56.90
15574;DHT22;7888;46.748;8.102;2024-03-02T03:22:57;9.80;56.80
15574;DHT22;7888;46.748;8.102;2024-03-02T03:25:23;9.80;56.60
15574;DHT22;7888;46.748;8.102;2024-03-02T03:27:49;9.80;56.50
15574;DHT22;7888;46.748;8.102;2024-03-02T03:30:14;9.70;56.40
15574;DHT22;7888;46.748;8.102;2024-03-02T03:32:40;9.70;56.40
15574;DHT22;7888;46.748;8.102;2024-03-02T03:35:07;9.60;56.30
15574;DHT22;7888;46.748;8.102;2024-03-02T03:37:33;9.60;56.30
15574;DHT22;7888;46.748;8.102;2024-03-02T03:40:02;9.50;56.40
15574;DHT22;7888;46.748;8.102;2024-03-02T03:42:32;9.50;56.50
15574;DHT22;7888;46.748;8.102;2024-03-02T03:44:58;9.50;56.40
15574;DHT22;7888;46.748;8.102;2024-03-02T03:47:23;9.40;56.20
15574;DHT22;7888;46.748;8.102;2024-03-02T03:49:49;9.40;56.20
15574;DHT22;7888;46.748;8.102;2024-03-02T03:52:15;9.40;56.10
15574;DHT22;7888;46.748;8.102;2024-03-02T03:54:40;9.40;56.10
15574;DHT22;7888;46.748;8.102;2024-03-02T03:57:08;9.40;56.10
15574;DHT22;7888;46.748;8.102;2024-03-02T03:59:34;9.30;56.00
15574;DHT22;7888;46.748;8.102;2024-03-02T04:01:59;9.30;56.00
15574;DHT22;7888;46.748;8.102;2024-03-02T04:04:25;9.30;56.00
15574;DHT22;7888;46.748;8.102;2024-03-02T04:06:51;9.30;56.00
15574;DHT22;7888;46.748;8.102;2024-03-02T04:09:16;9.20;56.00
15574;DHT22;7888;46.748;8.102;2024-03-02T04:11:43;9.20;56.10
15574;DHT22;7888;46.748;8.102;2024-03-02T04:14:08;9.20;56.10
15574;DHT22;7888;46.748;8.102;2024-03-02T04:16:35;9.20;56.10
15574;DHT22;7888;46.748;8.102;2024-03-02T04:19:01;9.20;56.10
15574;DHT22;7888;46.748;8.102;2024-03-02T04:21:27;9.10;56.10
15574;DHT22;7888;46.748;8.102;2024-03-02T04:23:52;9.10;56.70
15574;DHT22;7888;46.748;8.102;2024-03-02T04:26:22;9.10;56.20
15574;DHT22;7888;46.748;8.102;2024-03-02T04:28:48;9.10;56.30
15574;DHT22;7888;46.748;8.102;2024-03-02T04:31:15;9.10;56.30
15574;DHT22;7888;46.748;8.102;2024-03-02T04:33:41;9.10;56.40
15574;DHT22;7888;46.748;8.102;2024-03-02T04:36:07;9.10;56.50
15574;DHT22;7888;46.748;8.102;2024-03-02T04:38:35;9.00;56.50
15574;DHT22;7888;46.748;8.102;2024-03-02T04:41:01;9.00;56.60
15574;DHT22;7888;46.748;8.102;2024-03-02T04:43:27;9.00;56.70
15574;DHT22;7888;46.748;8.102;2024-03-02T04:45:52;9.00;56.70
15574;DHT22;7888;46.748;8.102;2024-03-02T04:48:18;9.00;56.80
15574;DHT22;7888;46.748;8.102;2024-03-02T04:50:44;9.00;57.60
15574;DHT22;7888;46.748;8.102;2024-03-02T04:53:10;9.00;57.10
15574;DHT22;7888;46.748;8.102;2024-03-02T04:55:36;9.00;57.30
15574;DHT22;7888;46.748;8.102;2024-03-02T04:58:05;9.00;57.50
15574;DHT22;7888;46.748;8.102;2024-03-02T05:00:32;9.00;57.50
15574;DHT22;7888;46.748;8.102;2024-03-02T05:02:58;9.00;57.70
15574;DHT22;7888;46.748;8.102;2024-03-02T05:05:24;9.00;57.90
15574;DHT22;7888;46.748;8.102;2024-03-02T05:07:49;9.00;58.20
15574;DHT22;7888;46.748;8.102;2024-03-02T05:10:15;9.10;58.30
15574;DHT22;7888;46.748;8.102;2024-03-02T05:12:41;9.10;58.20
15574;DHT22;7888;46.748;8.102;2024-03-02T05:15:07;9.20;58.20
15574;DHT22;7888;46.748;8.102;2024-03-02T05:17:35;9.20;58.30
15574;DHT22;7888;46.748;8.102;2024-03-02T05:20:02;9.20;58.30
15574;DHT22;7888;46.748;8.102;2024-03-02T05:22:29;9.20;58.40
15574;DHT22;7888;46.748;8.102;2024-03-02T05:24:55;9.30;58.40
15574;DHT22;7888;46.748;8.102;2024-03-02T05:27:22;9.30;58.40
15574;DHT22;7888;46.748;8.102;2024-03-02T05:29:47;9.30;58.40
15574;DHT22;7888;46.748;8.102;2024-03-02T05:32:13;9.40;58.40
15574;DHT22;7888;46.748;8.102;2024-03-02T05:34:39;9.30;58.30
15574;DHT22;7888;46.748;8.102;2024-03-02T05:37:05;9.30;58.20
15574;DHT22;7888;46.748;8.102;2024-03-02T05:39:30;9.40;58.20
15574;DHT22;7888;46.748;8.102;2024-03-02T05:41:56;9.40;58.70
15574;DHT22;7888;46.748;8.102;2024-03-02T05:44:22;9.40;58.20
15574;DHT22;7888;46.748;8.102;2024-03-02T05:46:48;9.40;58.10
15574;DHT22;7888;46.748;8.102;2024-03-02T05:49:14;9.30;58.20
15574;DHT22;7888;46.748;8.102;2024-03-02T05:51:39;9.30;58.20
15574;DHT22;7888;46.748;8.102;2024-03-02T05:54:05;9.30;58.30
15574;DHT22;7888;46.748;8.102;2024-03-02T05:56:31;9.30;58.40
15574;DHT22;7888;46.748;8.102;2024-03-02T05:58:57;9.30;58.40
15574;DHT22;7888;46.748;8.102;2024-03-02T06:01:34;9.30;58.40
15574;DHT22;7888;46.748;8.102;2024-03-02T06:04:00;9.40;58.50
15574;DHT22;7888;46.748;8.102;2024-03-02T06:06:26;9.40;58.50
15574;DHT22;7888;46.748;8.102;2024-03-02T06:08:52;9.40;58.50
15574;DHT22;7888;46.748;8.102;2024-03-02T06:11:19;9.40;58.50
15574;DHT22;7888;46.748;8.102;2024-03-02T06:13:45;9.40;58.40
15574;DHT22;7888;46.748;8.102;2024-03-02T06:16:11;9.40;58.20
15574;DHT22;7888;46.748;8.102;2024-03-02T06:18:37;9.40;58.20
15574;DHT22;7888;46.748;8.102;2024-03-02T06:21:03;9.40;58.20
15574;DHT22;7888;46.748;8.102;2024-03-02T06:23:29;9.50;58.30
15574;DHT22;7888;46.748;8.102;2024-03-02T06:25:55;9.50;58.30
15574;DHT22;7888;46.748;8.102;2024-03-02T06:28:21;9.40;58.20
15574;DHT22;7888;46.748;8.102;2024-03-02T06:30:46;9.40;58.20
15574;DHT22;7888;46.748;8.102;2024-03-02T06:33:12;9.40;58.30
15574;DHT22;7888;46.748;8.102;2024-03-02T06:35:38;9.30;58.40
15574;DHT22;7888;46.748;8.102;2024-03-02T06:38:04;9.40;58.50
15574;DHT22;7888;46.748;8.102;2024-03-02T06:40:30;9.30;58.50
15574;DHT22;7888;46.748;8.102;2024-03-02T06:42:56;9.30;58.60
15574;DHT22;7888;46.748;8.102;2024-03-02T06:45:21;9.30;58.60
15574;DHT22;7888;46.748;8.102;2024-03-02T06:47:47;9.40;58.50
15574;DHT22;7888;46.748;8.102;2024-03-02T06:50:13;9.40;58.50
15574;DHT22;7888;46.748;8.102;2024-03-02T06:52:38;9.30;58.50
15574;DHT22;7888;46.748;8.102;2024-03-02T06:55:04;9.30;58.50
15574;DHT22;7888;46.748;8.102;2024-03-02T06:57:31;9.30;58.60
15574;DHT22;7888;46.748;8.102;2024-03-02T06:59:57;9.40;58.70
15574;DHT22;7888;46.748;8.102;2024-03-02T07:02:24;9.40;58.70
15574;DHT22;7888;46.748;8.102;2024-03-02T07:04:54;9.40;58.70
15574;DHT22;7888;46.748;8.102;2024-03-02T07:07:19;9.40;58.70
15574;DHT22;7888;46.748;8.102;2024-03-02T07:09:46;9.40;58.60
15574;DHT22;7888;46.748;8.102;2024-03-02T07:12:13;9.40;58.40
15574;DHT22;7888;46.748;8.102;2024-03-02T07:14:38;9.40;58.40
15574;DHT22;7888;46.748;8.102;2024-03-02T07:17:36;9.40;58.30
15574;DHT22;7888;46.748;8.102;2024-03-02T07:20:02;9.40;58.20
15574;DHT22;7888;46.748;8.102;2024-03-02T07:22:32;9.30;58.20
15574;DHT22;7888;46.748;8.102;2024-03-02T07:24:58;9.30;58.30
15574;DHT22;7888;46.748;8.102;2024-03-02T07:27:24;9.30;58.40
15574;DHT22;7888;46.748;8.102;2024-03-02T07:29:50;9.30;59.00
15574;DHT22;7888;46.748;8.102;2024-03-02T07:32:15;9.30;58.50
15574;DHT22;7888;46.748;8.102;2024-03-02T07:34:41;9.40;58.70
15574;DHT22;7888;46.748;8.102;2024-03-02T07:37:07;9.40;58.70
15574;DHT22;7888;46.748;8.102;2024-03-02T07:39:33;9.50;58.90
15574;DHT22;7888;46.748;8.102;2024-03-02T07:41:59;9.60;59.00
15574;DHT22;7888;46.748;8.102;2024-03-02T07:44:25;9.70;59.10
15574;DHT22;7888;46.748;8.102;2024-03-02T07:46:51;9.90;59.10
15574;DHT22;7888;46.748;8.102;2024-03-02T07:49:18;9.90;59.10
15574;DHT22;7888;46.748;8.102;2024-03-02T07:51:44;10.00;59.00
15574;DHT22;7888;46.748;8.102;2024-03-02T07:54:10;10.20;59.00
15574;DHT22;7888;46.748;8.102;2024-03-02T07:56:36;10.30;59.10
15574;DHT22;7888;46.748;8.102;2024-03-02T07:59:02;10.40;59.00
15574;DHT22;7888;46.748;8.102;2024-03-02T08:01:33;10.50;58.90
15574;DHT22;7888;46.748;8.102;2024-03-02T08:04:00;10.60;58.90
15574;DHT22;7888;46.748;8.102;2024-03-02T08:06:27;10.70;58.90
15574;DHT22;7888;46.748;8.102;2024-03-02T08:09:00;10.80;58.70
15574;DHT22;7888;46.748;8.102;2024-03-02T08:11:26;11.00;58.60
15574;DHT22;7888;46.748;8.102;2024-03-02T08:13:53;11.00;58.90
15574;DHT22;7888;46.748;8.102;2024-03-02T08:16:23;11.10;58.20
15574;DHT22;7888;46.748;8.102;2024-03-02T08:18:51;11.20;58.00
15574;DHT22;7888;46.748;8.102;2024-03-02T08:21:17;11.20;57.80
15574;DHT22;7888;46.748;8.102;2024-03-02T08:23:43;11.30;57.70
15574;DHT22;7888;46.748;8.102;2024-03-02T08:26:10;11.30;57.60
15574;DHT22;7888;46.748;8.102;2024-03-02T08:28:36;11.30;57.70
15574;DHT22;7888;46.748;8.102;2024-03-02T08:31:03;11.40;58.00
15574;DHT22;7888;46.748;8.102;2024-03-02T08:33:29;11.50;58.20
15574;DHT22;7888;46.748;8.102;2024-03-02T08:35:55;11.60;58.20
15574;DHT22;7888;46.748;8.102;2024-03-02T08:38:22;11.70;58.10
15574;DHT22;7888;46.748;8.102;2024-03-02T08:40:49;11.90;58.00
15574;DHT22;7888;46.748;8.102;2024-03-02T08:43:15;11.90;57.90
15574;DHT22;7888;46.748;8.102;2024-03-02T08:45:41;12.00;57.80
15574;DHT22;7888;46.748;8.102;2024-03-02T08:48:08;12.10;57.60
15574;DHT22;7888;46.748;8.102;2024-03-02T08:50:34;12.30;57.30
15574;DHT22;7888;46.748;8.102;2024-03-02T08:53:00;12.30;57.10
15574;DHT22;7888;46.748;8.102;2024-03-02T08:55:26;12.30;56.70
15574;DHT22;7888;46.748;8.102;2024-03-02T08:57:52;12.40;56.50
15574;DHT22;7888;46.748;8.102;2024-03-02T09:00:18;12.40;56.30
15574;DHT22;7888;46.748;8.102;2024-03-02T09:02:45;12.30;56.20
15574;DHT22;7888;46.748;8.102;2024-03-02T09:05:11;12.30;56.30
15574;DHT22;7888;46.748;8.102;2024-03-02T09:07:37;12.40;56.30
15574;DHT22;7888;46.748;8.102;2024-03-02T09:10:05;12.40;56.30
15574;DHT22;7888;46.748;8.102;2024-03-02T09:12:32;12.40;56.30
15574;DHT22;7888;46.748;8.102;2024-03-02T09:14:58;12.40;56.40
15574;DHT22;7888;46.748;8.102;2024-03-02T09:17:25;12.50;56.50
15574;DHT22;7888;46.748;8.102;2024-03-02T09:19:51;12.50;56.80
15574;DHT22;7888;46.748;8.102;2024-03-02T09:22:19;12.60;57.50
15574;DHT22;7888;46.748;8.102;2024-03-02T09:24:45;12.70;56.80
15574;DHT22;7888;46.748;8.102;2024-03-02T09:27:11;12.80;56.50
15574;DHT22;7888;46.748;8.102;2024-03-02T09:29:37;12.90;56.20
15574;DHT22;7888;46.748;8.102;2024-03-02T09:32:04;13.00;56.00
15574;DHT22;7888;46.748;8.102;2024-03-02T09:34:31;13.00;56.00
15574;DHT22;7888;46.748;8.102;2024-03-02T09:36:57;13.00;56.00
15574;DHT22;7888;46.748;8.102;2024-03-02T09:39:24;13.10;55.70
15574;DHT22;7888;46.748;8.102;2024-03-02T09:41:51;13.20;55.40
15574;DHT22;7888;46.748;8.102;2024-03-02T09:44:17;13.20;55.40
15574;DHT22;7888;46.748;8.102;2024-03-02T09:46:43;13.20;55.30
15574;DHT22;7888;46.748;8.102;2024-03-02T09:49:12;13.20;55.40
15574;DHT22;7888;46.748;8.102;2024-03-02T09:51:38;13.20;55.80
15574;DHT22;7888;46.748;8.102;2024-03-02T09:54:07;13.30;56.20
15574;DHT22;7888;46.748;8.102;2024-03-02T09:56:33;13.50;56.50
15574;DHT22;7888;46.748;8.102;2024-03-02T09:58:59;13.60;56.70
15574;DHT22;7888;46.748;8.102;2024-03-02T10:01:25;13.80;56.80
15574;DHT22;7888;46.748;8.102;2024-03-02T10:03:51;14.00;56.90
15574;DHT22;7888;46.748;8.102;2024-03-02T10:08:49;14.40;56.10
15574;DHT22;7888;46.748;8.102;2024-03-02T10:11:34;14.60;55.50
15574;DHT22;7888;46.748;8.102;2024-03-02T10:14:11;14.70;54.40
15574;DHT22;7888;46.748;8.102;2024-03-02T10:16:39;14.80;54.50
15574;DHT22;7888;46.748;8.102;2024-03-02T10:19:16;14.90;54.80
15574;DHT22;7888;46.748;8.102;2024-03-02T10:21:53;14.90;53.90
15574;DHT22;7888;46.748;8.102;2024-03-02T10:24:21;14.90;53.50
15574;DHT22;7888;46.748;8.102;2024-03-02T10:26:48;14.90;53.80
15574;DHT22;7888;46.748;8.102;2024-03-02T10:29:15;14.90;53.40
15574;DHT22;7888;46.748;8.102;2024-03-02T10:31:43;14.90;53.20
15574;DHT22;7888;46.748;8.102;2024-03-02T10:34:11;15.00;53.20
15574;DHT22;7888;46.748;8.102;2024-03-02T10:36:42;15.00;53.30
15574;DHT22;7888;46.748;8.102;2024-03-02T10:39:09;15.00;53.00
15574;DHT22;7888;46.748;8.102;2024-03-02T10:41:36;15.00;53.10
15574;DHT22;7888;46.748;8.102;2024-03-02T10:44:05;15.10;53.10
15574;DHT22;7888;46.748;8.102;2024-03-02T10:46:33;15.10;53.40
15574;DHT22;7888;46.748;8.102;2024-03-02T10:49:01;15.30;53.00
15574;DHT22;7888;46.748;8.102;2024-03-02T10:51:34;15.30;52.90
15574;DHT22;7888;46.748;8.102;2024-03-02T10:54:03;15.40;52.50
15574;DHT22;7888;46.748;8.102;2024-03-02T10:56:34;15.50;52.40
15574;DHT22;7888;46.748;8.102;2024-03-02T11:00:06;15.60;52.00
15574;DHT22;7888;46.748;8.102;2024-03-02T11:02:24;15.70;51.70
15574;DHT22;7888;46.748;8.102;2024-03-02T11:04:54;15.90;52.00
15574;DHT22;7888;46.748;8.102;2024-03-02T11:07:21;16.00;52.00
15574;DHT22;7888;46.748;8.102;2024-03-02T11:09:59;16.10;52.20
15574;DHT22;7888;46.748;8.102;2024-03-02T11:12:42;16.20;51.40
15574;DHT22;7888;46.748;8.102;2024-03-02T11:15:17;16.30;51.60
15574;DHT22;7888;46.748;8.102;2024-03-02T11:17:46;16.40;51.70
15574;DHT22;7888;46.748;8.102;2024-03-02T11:20:14;16.40;51.70
15574;DHT22;7888;46.748;8.102;2024-03-02T11:22:40;16.50;51.30
15574;DHT22;7888;46.748;8.102;2024-03-02T11:25:26;16.50;51.30
15574;DHT22;7888;46.748;8.102;2024-03-02T11:33:00;16.70;49.90
15574;DHT22;7888;46.748;8.102;2024-03-02T11:35:36;16.80;50.60
15574;DHT22;7888;46.748;8.102;2024-03-02T11:38:04;16.90;50.30
15574;DHT22;7888;46.748;8.102;2024-03-02T11:40:30;17.00;50.30
15574;DHT22;7888;46.748;8.102;2024-03-02T11:42:57;17.10;50.10
15574;DHT22;7888;46.748;8.102;2024-03-02T11:45:28;17.20;50.00
15574;DHT22;7888;46.748;8.102;2024-03-02T11:47:58;17.30;50.00
15574;DHT22;7888;46.748;8.102;2024-03-02T11:50:40;17.30;49.50
15574;DHT22;7888;46.748;8.102;2024-03-02T11:53:15;17.30;48.80
15574;DHT22;7888;46.748;8.102;2024-03-02T11:55:42;17.30;49.30
15574;DHT22;7888;46.748;8.102;2024-03-02T11:58:12;17.40;49.20
15574;DHT22;7888;46.748;8.102;2024-03-02T12:00:39;17.40;49.30
15574;DHT22;7888;46.748;8.102;2024-03-02T12:03:06;17.40;49.20
15574;DHT22;7888;46.748;8.102;2024-03-02T12:05:34;17.40;49.10
15574;DHT22;7888;46.748;8.102;2024-03-02T12:08:02;17.40;48.70
15574;DHT22;7888;46.748;8.102;2024-03-02T12:10:30;17.40;48.40
15574;DHT22;7888;46.748;8.102;2024-03-02T12:13:04;17.40;48.60
15574;DHT22;7888;46.748;8.102;2024-03-02T12:15:34;17.40;48.20
15574;DHT22;7888;46.748;8.102;2024-03-02T12:18:02;17.50;48.40
15574;DHT22;7888;46.748;8.102;2024-03-02T12:20:30;17.50;48.30
15574;DHT22;7888;46.748;8.102;2024-03-02T12:23:02;17.50;48.20
15574;DHT22;7888;46.748;8.102;2024-03-02T12:25:30;17.60;48.20
15574;DHT22;7888;46.748;8.102;2024-03-02T12:28:00;17.70;48.50
15574;DHT22;7888;46.748;8.102;2024-03-02T12:30:29;17.80;48.50
15574;DHT22;7888;46.748;8.102;2024-03-02T12:32:56;17.90;48.00
15574;DHT22;7888;46.748;8.102;2024-03-02T12:35:22;18.00;48.00
15574;DHT22;7888;46.748;8.102;2024-03-02T12:37:51;18.00;48.00
15574;DHT22;7888;46.748;8.102;2024-03-02T12:40:19;18.10;47.90
15574;DHT22;7888;46.748;8.102;2024-03-02T12:42:48;18.10;47.80
15574;DHT22;7888;46.748;8.102;2024-03-02T12:45:15;18.10;47.30
15574;DHT22;7888;46.748;8.102;2024-03-02T12:47:42;18.10;47.40
15574;DHT22;7888;46.748;8.102;2024-03-02T12:50:09;18.00;47.30
15574;DHT22;7888;46.748;8.102;2024-03-02T12:52:35;18.00;47.20
15574;DHT22;7888;46.748;8.102;2024-03-02T12:55:03;17.90;48.00
15574;DHT22;7888;46.748;8.102;2024-03-02T12:57:31;17.90;47.40
15574;DHT22;7888;46.748;8.102;2024-03-02T12:59:59;17.90;47.20
15574;DHT22;7888;46.748;8.102;2024-03-02T13:02:30;17.90;47.20
15574;DHT22;7888;46.748;8.102;2024-03-02T13:04:57;17.90;47.10
15574;DHT22;7888;46.748;8.102;2024-03-02T13:07:24;17.80;46.90
15574;DHT22;7888;46.748;8.102;2024-03-02T13:09:52;17.80;47.10
15574;DHT22;7888;46.748;8.102;2024-03-02T13:12:21;17.80;47.10
15574;DHT22;7888;46.748;8.102;2024-03-02T13:14:54;17.80;47.10
15574;DHT22;7888;46.748;8.102;2024-03-02T13:17:20;17.80;46.70
15574;DHT22;7888;46.748;8.102;2024-03-02T13:19:57;17.80;46.90
15574;DHT22;7888;46.748;8.102;2024-03-02T13:22:25;17.80;46.10
15574;DHT22;7888;46.748;8.102;2024-03-02T13:24:52;17.80;46.80
15574;DHT22;7888;46.748;8.102;2024-03-02T13:27:20;17.80;46.80
15574;DHT22;7888;46.748;8.102;2024-03-02T13:29:46;17.80;46.90
15574;DHT22;7888;46.748;8.102;2024-03-02T13:32:13;17.80;46.90
15574;DHT22;7888;46.748;8.102;2024-03-02T13:34:40;17.80;46.80
15574;DHT22;7888;46.748;8.102;2024-03-02T13:37:06;17.80;46.80
15574;DHT22;7888;46.748;8.102;2024-03-02T13:39:32;17.90;46.70
15574;DHT22;7888;46.748;8.102;2024-03-02T13:42:00;17.90;46.60
15574;DHT22;7888;46.748;8.102;2024-03-02T13:44:31;17.90;46.50
15574;DHT22;7888;46.748;8.102;2024-03-02T13:46:59;18.00;46.50
15574;DHT22;7888;46.748;8.102;2024-03-02T13:49:25;18.00;46.20
15574;DHT22;7888;46.748;8.102;2024-03-02T13:51:59;18.00;46.10
15574;DHT22;7888;46.748;8.102;2024-03-02T13:54:26;18.00;46.00
15574;DHT22;7888;46.748;8.102;2024-03-02T13:56:52;18.00;46.00
15574;DHT22;7888;46.748;8.102;2024-03-02T13:59:18;18.00;45.90
15574;DHT22;7888;46.748;8.102;2024-03-02T14:01:44;17.90;45.80
15574;DHT22;7888;46.748;8.102;2024-03-02T14:04:10;17.80;46.00
15574;DHT22;7888;46.748;8.102;2024-03-02T14:06:36;17.80;46.20
15574;DHT22;7888;46.748;8.102;2024-03-02T14:09:03;17.90;46.10
15574;DHT22;7888;46.748;8.102;2024-03-02T14:11:28;17.90;46.20
15574;DHT22;7888;46.748;8.102;2024-03-02T14:13:54;17.90;45.90
15574;DHT22;7888;46.748;8.102;2024-03-02T14:16:20;17.90;45.70
15574;DHT22;7888;46.748;8.102;2024-03-02T14:18:46;17.80;45.70
15574;DHT22;7888;46.748;8.102;2024-03-02T14:21:12;17.80;45.70
15574;DHT22;7888;46.748;8.102;2024-03-02T14:23:37;17.70;45.80
15574;DHT22;7888;46.748;8.102;2024-03-02T14:26:03;17.70;45.80
15574;DHT22;7888;46.748;8.102;2024-03-02T14:28:29;17.70;45.70
15574;DHT22;7888;46.748;8.102;2024-03-02T14:30:55;17.70;45.40
15574;DHT22;7888;46.748;8.102;2024-03-02T14:33:20;17.60;45.30
15574;DHT22;7888;46.748;8.102;2024-03-02T14:35:46;17.60;45.40
15574;DHT22;7888;46.748;8.102;2024-03-02T14:38:12;17.50;45.60
15574;DHT22;7888;46.748;8.102;2024-03-02T14:40:38;17.50;45.60
15574;DHT22;7888;46.748;8.102;2024-03-02T14:43:04;17.50;45.50
15574;DHT22;7888;46.748;8.102;2024-03-02T14:45:30;17.50;45.40
15574;DHT22;7888;46.748;8.102;2024-03-02T14:47:56;17.40;45.20
15574;DHT22;7888;46.748;8.102;2024-03-02T14:50:28;17.40;45.00
15574;DHT22;7888;46.748;8.102;2024-03-02T14:52:54;17.30;45.00
15574;DHT22;7888;46.748;8.102;2024-03-02T14:55:23;17.20;44.90
15574;DHT22;7888;46.748;8.102;2024-03-02T14:57:49;17.20;45.00
15574;DHT22;7888;46.748;8.102;2024-03-02T15:00:15;17.10;45.00
15574;DHT22;7888;46.748;8.102;2024-03-02T15:02:41;17.10;45.00
15574;DHT22;7888;46.748;8.102;2024-03-02T15:05:07;17.10;45.20
15574;DHT22;7888;46.748;8.102;2024-03-02T15:07:34;17.10;45.10
15574;DHT22;7888;46.748;8.102;2024-03-02T15:09:59;17.20;45.10
15574;DHT22;7888;46.748;8.102;2024-03-02T15:12:25;17.20;45.10
15574;DHT22;7888;46.748;8.102;2024-03-02T15:14:51;17.20;45.10
15574;DHT22;7888;46.748;8.102;2024-03-02T15:17:17;17.20;44.70
15574;DHT22;7888;46.748;8.102;2024-03-02T15:19:44;17.30;45.00
15574;DHT22;7888;46.748;8.102;2024-03-02T15:22:11;17.30;45.10
15574;DHT22;7888;46.748;8.102;2024-03-02T15:24:37;17.40;45.20
15574;DHT22;7888;46.748;8.102;2024-03-02T15:27:04;17.50;45.20
15574;DHT22;7888;46.748;8.102;2024-03-02T15:29:40;17.50;45.20
15574;DHT22;7888;46.748;8.102;2024-03-02T15:32:06;17.60;44.50
15574;DHT22;7888;46.748;8.102;2024-03-02T15:34:33;17.70;44.90
15574;DHT22;7888;46.748;8.102;2024-03-02T15:36:59;17.80;44.70
15574;DHT22;7888;46.748;8.102;2024-03-02T15:39:25;17.80;44.60
15574;DHT22;7888;46.748;8.102;2024-03-02T15:41:51;17.80;44.50
15574;DHT22;7888;46.748;8.102;2024-03-02T15:44:17;17.80;44.00
15574;DHT22;7888;46.748;8.102;2024-03-02T15:46:43;17.80;44.20
15574;DHT22;7888;46.748;8.102;2024-03-02T15:49:09;17.70;44.30
15574;DHT22;7888;46.748;8.102;2024-03-02T15:51:35;17.70;44.40
15574;DHT22;7888;46.748;8.102;2024-03-02T15:54:04;17.70;44.50
15574;DHT22;7888;46.748;8.102;2024-03-02T15:56:30;17.60;44.10
15574;DHT22;7888;46.748;8.102;2024-03-02T15:58:56;17.60;43.70
15574;DHT22;7888;46.748;8.102;2024-03-02T16:01:22;17.50;43.50
15574;DHT22;7888;46.748;8.102;2024-03-02T16:03:47;17.50;43.60